createdAt,value
2018-09-13T00:01:56.585Z,29.80
2018-09-13T00:04:23.619Z,28.80
2018-09-13T00:06:50.637Z,27.40
2018-09-13T00:09:17.716Z,28.30
2018-09-13T00:11:44.772Z,27.20
2018-09-13T00:16:38.886Z,28.20
2018-09-13T00:19:05.920Z,29.50
2018-09-13T00:21:34.416Z,29.00
2018-09-13T00:24:01.468Z,29.70
2018-09-13T00:26:28.501Z,29.80
2018-09-13T00:28:55.519Z,32.20
2018-09-13T00:31:22.573Z,34.00
2018-09-13T00:33:49.595Z,35.90
2018-09-13T00:36:16.609Z,36.40
2018-09-13T00:38:44.476Z,37.00
2018-09-13T00:43:50.679Z,36.30
2018-09-13T00:46:18.544Z,36.20
2018-09-13T00:48:45.562Z,35.70
2018-09-13T00:51:12.632Z,37.60
2018-09-13T00:56:06.774Z,37.90
2018-09-13T00:58:33.877Z,38.70
2018-09-13T01:01:00.847Z,43.40
2018-09-13T01:03:27.880Z,48.10
2018-09-13T01:05:54.935Z,49.10
2018-09-13T01:08:21.954Z,48.60
2018-09-13T01:10:48.996Z,46.30
2018-09-13T01:13:16.061Z,43.60
2018-09-13T01:15:44.114Z,41.50
2018-09-13T01:18:11.994Z,42.70
2018-09-13T01:20:39.053Z,46.40
2018-09-13T01:23:06.087Z,45.30
2018-09-13T01:25:33.135Z,45.20
2018-09-13T01:28:00.182Z,45.90
2018-09-13T01:30:27.210Z,46.30
2018-09-13T01:32:55.102Z,47.20
2018-09-13T01:35:23.020Z,47.60
2018-09-13T01:37:50.887Z,45.90
2018-09-13T01:40:17.915Z,46.30
2018-09-13T01:42:44.957Z,46.80
2018-09-13T01:45:11.989Z,47.10
2018-09-13T01:47:39.024Z,47.60
2018-09-13T01:50:07.049Z,49.90
2018-09-13T01:52:34.063Z,49.70
2018-09-13T01:55:01.109Z,49.70
2018-09-13T01:57:28.172Z,50.60
2018-09-13T02:02:35.719Z,50.60
2018-09-13T02:05:02.742Z,50.70
2018-09-13T02:09:56.886Z,54.20
2018-09-13T02:12:24.685Z,52.60
2018-09-13T02:14:51.704Z,55.00
2018-09-13T02:17:18.772Z,56.50
2018-09-13T02:19:46.643Z,59.70
2018-09-13T02:22:13.660Z,59.70
2018-09-13T02:24:40.709Z,62.50
2018-09-13T02:27:07.741Z,65.90
2018-09-13T02:29:34.749Z,67.10
2018-09-13T02:32:01.804Z,67.20
2018-09-13T02:34:29.729Z,67.60
2018-09-13T02:36:56.761Z,67.50
2018-09-13T02:39:23.814Z,67.50
2018-09-13T02:41:50.849Z,68.40
2018-09-13T02:44:17.876Z,69.40
2018-09-13T02:46:44.952Z,69.30
2018-09-13T02:49:12.028Z,68.80
2018-09-13T02:51:39.864Z,69.60
2018-09-13T02:54:06.915Z,68.30
2018-09-13T02:56:33.931Z,69.10
2018-09-13T02:59:00.961Z,68.40
2018-09-13T03:01:28.020Z,67.90
2018-09-13T03:03:55.056Z,67.80
2018-09-13T03:06:22.086Z,70.00
2018-09-13T03:11:18.059Z,70.40
2018-09-13T03:13:45.080Z,70.80
2018-09-13T03:16:12.841Z,71.90
2018-09-13T03:21:21.341Z,70.00
2018-09-13T03:23:49.617Z,71.00
2018-09-13T03:28:44.708Z,69.50
2018-09-13T03:31:11.724Z,69.00
2018-09-13T03:33:38.754Z,71.60
2018-09-13T03:36:06.644Z,71.70
2018-09-13T03:38:33.684Z,71.80
2018-09-13T03:41:00.700Z,72.80
2018-09-13T03:43:27.743Z,72.30
2018-09-13T03:45:54.792Z,73.40
2018-09-13T03:48:22.760Z,71.80
2018-09-13T03:50:50.274Z,72.30
2018-09-13T03:53:18.219Z,72.50
2018-09-13T03:55:45.240Z,73.60
2018-09-13T03:58:13.119Z,73.50
2018-09-13T04:00:40.152Z,74.00
2018-09-13T04:03:08.060Z,73.80
2018-09-13T04:05:35.983Z,73.50
2018-09-13T04:08:03.016Z,72.60
2018-09-13T04:10:30.049Z,72.50
2018-09-13T04:12:57.096Z,73.00
2018-09-13T04:15:24.114Z,73.60
2018-09-13T04:20:31.347Z,76.10
2018-09-13T04:22:58.364Z,76.00
2018-09-13T04:25:25.401Z,75.70
2018-09-13T04:27:52.456Z,75.90
2018-09-13T04:30:20.421Z,75.90
2018-09-13T04:32:47.447Z,74.50
2018-09-13T04:35:14.522Z,75.40
2018-09-13T04:37:42.333Z,74.30
2018-09-13T04:40:09.367Z,75.20
2018-09-13T04:45:04.366Z,74.70
2018-09-13T04:47:32.371Z,73.30
2018-09-13T04:49:59.433Z,72.30
2018-09-13T04:52:27.420Z,73.50
2018-09-13T04:54:54.441Z,73.50
2018-09-13T04:57:21.498Z,73.30
2018-09-13T04:59:49.472Z,73.90
2018-09-13T05:02:16.478Z,73.50
2018-09-13T05:04:43.585Z,72.50
2018-09-13T05:07:11.392Z,73.30
2018-09-13T05:09:38.426Z,73.20
2018-09-13T05:12:06.336Z,74.10
2018-09-13T05:14:33.368Z,74.20
2018-09-13T05:19:38.581Z,74.30
2018-09-13T05:22:05.618Z,76.30
2018-09-13T05:26:59.802Z,76.00
2018-09-13T05:29:26.808Z,76.20
2018-09-13T05:31:53.847Z,75.70
2018-09-13T05:34:20.912Z,76.30
2018-09-13T05:36:47.943Z,77.30
2018-09-13T05:39:16.007Z,77.90
2018-09-13T05:41:43.080Z,78.00
2018-09-13T05:44:10.925Z,77.80
2018-09-13T05:46:37.981Z,77.30
2018-09-13T05:49:05.081Z,76.90
2018-09-13T05:51:33.112Z,78.00
2018-09-13T05:54:00.134Z,77.10
2018-09-13T05:56:27.186Z,76.70
2018-09-13T05:58:55.058Z,80.00
2018-09-13T06:01:22.118Z,79.10
2018-09-13T06:03:50.022Z,78.70
2018-09-13T06:06:17.054Z,79.70
2018-09-13T06:08:44.091Z,79.10
2018-09-13T06:11:11.131Z,79.70
2018-09-13T06:13:38.189Z,78.70
2018-09-13T06:16:05.185Z,79.60
2018-09-13T06:18:32.239Z,79.50
2018-09-13T06:23:26.330Z,78.50
2018-09-13T06:28:33.380Z,78.80
2018-09-13T06:35:57.316Z,80.70
2018-09-13T06:38:25.359Z,78.90
2018-09-13T06:40:53.104Z,79.10
2018-09-13T06:45:48.214Z,73.60
2018-09-13T06:48:16.638Z,71.70
2018-09-13T06:50:43.656Z,70.40
2018-09-13T06:53:10.723Z,70.00
2018-09-13T06:55:38.629Z,70.20
2018-09-13T06:58:05.667Z,71.30
2018-09-13T07:00:33.751Z,67.20
2018-09-13T07:03:00.801Z,66.00
2018-09-13T07:05:27.831Z,63.50
2018-09-13T07:07:55.780Z,62.50
2018-09-13T07:10:22.825Z,61.50
2018-09-13T07:12:49.875Z,60.00
2018-09-13T07:15:16.919Z,57.60
2018-09-13T07:17:43.970Z,58.80
2018-09-13T07:20:10.995Z,57.20
2018-09-13T07:22:38.142Z,55.50
2018-09-13T07:27:44.039Z,50.50
2018-09-13T07:30:11.062Z,49.10
2018-09-13T07:32:38.116Z,51.40
2018-09-13T07:35:05.178Z,49.10
2018-09-13T07:37:32.706Z,47.70
2018-09-13T07:39:59.720Z,47.30
2018-09-13T07:47:21.022Z,42.20
2018-09-13T07:49:48.248Z,43.90
2018-09-13T07:52:15.131Z,43.60
2018-09-13T07:54:42.957Z,41.20
2018-09-13T07:57:10.933Z,38.90
2018-09-13T07:59:38.975Z,38.60
2018-09-13T08:02:06.018Z,39.10
2018-09-13T08:04:33.926Z,41.20
2018-09-13T08:07:01.688Z,42.00
2018-09-13T08:09:28.711Z,38.60
2018-09-13T08:11:56.229Z,35.90
2018-09-13T08:14:23.191Z,35.10
2018-09-13T08:16:50.214Z,33.30
2018-09-13T08:19:17.276Z,32.20
2018-09-13T08:21:45.220Z,33.10
2018-09-13T08:24:13.167Z,29.90
2018-09-13T08:26:40.227Z,28.30
2018-09-13T08:29:07.245Z,30.30
2018-09-13T08:31:34.266Z,30.00
2018-09-13T08:34:02.141Z,31.30
2018-09-13T08:36:30.112Z,26.00
2018-09-13T08:38:57.156Z,24.30
2018-09-13T08:41:25.172Z,23.50
2018-09-13T08:43:52.206Z,23.90
2018-09-13T08:46:19.245Z,25.70
2018-09-13T08:48:46.323Z,25.30
2018-09-13T08:53:40.993Z,22.90
2018-09-13T08:58:49.048Z,22.90
2018-09-13T09:03:44.088Z,17.70
2018-09-13T09:06:11.993Z,19.40
2018-09-13T09:08:39.001Z,19.90
2018-09-13T09:11:06.865Z,18.90
2018-09-13T09:13:33.907Z,18.80
2018-09-13T09:16:00.966Z,18.60
2018-09-13T09:18:29.003Z,17.00
2018-09-13T09:20:55.998Z,17.30
2018-09-13T09:23:23.053Z,17.20
2018-09-13T09:25:50.094Z,17.70
2018-09-13T09:28:17.110Z,17.80
2018-09-13T09:30:45.181Z,15.50
2018-09-13T09:33:13.066Z,15.60
2018-09-13T09:35:40.116Z,15.90
2018-09-13T09:38:07.182Z,15.20
2018-09-13T09:40:34.283Z,14.10
2018-09-13T09:43:01.284Z,15.80
2018-09-13T09:45:28.353Z,17.00
2018-09-13T09:47:56.242Z,16.10
2018-09-13T09:50:23.280Z,16.20
2018-09-13T09:52:50.352Z,13.70
2018-09-13T09:55:17.393Z,11.10
2018-09-13T09:57:44.437Z,13.90
2018-09-13T10:00:12.259Z,13.70
2018-09-13T10:02:39.320Z,12.10
2018-09-13T10:05:06.377Z,11.40
2018-09-13T10:07:33.454Z,9.90
2018-09-13T10:10:00.495Z,9.60
2018-09-13T10:12:27.540Z,10.40
2018-09-13T10:14:54.616Z,9.80
2018-09-13T10:17:21.659Z,11.00
2018-09-13T10:19:48.695Z,9.40
2018-09-13T10:24:54.775Z,8.00
2018-09-13T10:27:21.835Z,9.60
2018-09-13T10:29:48.940Z,9.20
2018-09-13T10:32:15.904Z,9.30
2018-09-13T10:34:43.934Z,9.50
2018-09-13T10:37:12.904Z,9.10
2018-09-13T10:39:42.785Z,9.30
2018-09-13T10:42:08.775Z,11.00
2018-09-13T10:44:35.813Z,8.80
2018-09-13T10:47:02.849Z,9.70
2018-09-13T10:49:30.713Z,8.60
2018-09-13T10:51:57.745Z,7.70
2018-09-13T10:54:24.823Z,7.60
2018-09-13T10:56:51.838Z,9.00
2018-09-13T11:01:46.819Z,8.00
2018-09-13T11:04:14.003Z,7.90
2018-09-13T11:06:41.756Z,8.90
2018-09-13T11:09:08.782Z,8.70
2018-09-13T11:11:36.196Z,8.80
2018-09-13T11:14:03.226Z,6.70
2018-09-13T11:16:30.243Z,6.40
2018-09-13T11:21:25.850Z,6.40
2018-09-13T11:23:53.835Z,6.50
2018-09-13T11:31:15.191Z,6.30
2018-09-13T11:33:42.227Z,6.50
2018-09-13T11:36:09.267Z,6.80
2018-09-13T11:38:36.331Z,6.10
2018-09-13T11:43:44.861Z,6.80
2018-09-13T11:46:12.776Z,6.20
2018-09-13T11:48:39.801Z,5.30
2018-09-13T11:51:06.865Z,5.40
2018-09-13T11:53:33.880Z,4.80
2018-09-13T11:56:00.909Z,6.70
2018-09-13T11:58:27.931Z,5.70
2018-09-13T12:00:54.987Z,4.80
2018-09-13T12:03:22.045Z,6.20
2018-09-13T12:08:16.205Z,4.30
2018-09-13T12:10:43.224Z,5.10
2018-09-13T12:13:10.233Z,5.80
2018-09-13T12:15:37.283Z,6.70
2018-09-13T12:18:04.403Z,5.30
2018-09-13T12:22:59.392Z,3.50
2018-09-13T12:25:26.413Z,5.10
2018-09-13T12:27:53.413Z,3.40
2018-09-13T12:30:20.461Z,4.90
2018-09-13T12:35:27.470Z,5.90
2018-09-13T12:37:54.496Z,5.90
2018-09-13T12:40:21.489Z,5.00
2018-09-13T12:42:48.569Z,4.90
2018-09-13T12:45:15.590Z,5.20
2018-09-13T12:47:42.589Z,3.60
2018-09-13T12:50:09.627Z,5.60
2018-09-13T12:52:37.452Z,2.70
2018-09-13T12:55:04.471Z,3.90
2018-09-13T12:57:32.466Z,4.80
2018-09-13T13:00:00.433Z,4.60
2018-09-13T13:02:27.442Z,3.40
2018-09-13T13:04:54.479Z,6.50
2018-09-13T13:07:21.476Z,5.60
2018-09-13T13:09:48.481Z,5.70
2018-09-13T13:12:15.527Z,4.80
2018-09-13T13:14:42.554Z,4.70
2018-09-13T13:17:09.570Z,6.10
2018-09-13T13:19:36.619Z,6.40
2018-09-13T13:22:03.644Z,6.10
2018-09-13T13:24:30.660Z,7.40
2018-09-13T13:26:57.786Z,7.70
2018-09-13T13:29:24.775Z,8.00
2018-09-13T13:31:51.846Z,8.70
2018-09-13T13:34:19.006Z,8.80
2018-09-13T13:36:46.014Z,8.50
2018-09-13T13:39:13.019Z,9.10
2018-09-13T13:41:41.039Z,9.20
2018-09-13T13:44:08.101Z,9.50
2018-09-13T13:46:35.089Z,8.50
2018-09-13T13:49:02.133Z,9.60
2018-09-13T13:51:30.001Z,10.00
2018-09-13T13:56:36.484Z,12.80
2018-09-13T13:59:03.509Z,13.30
2018-09-13T14:03:57.687Z,10.60
2018-09-13T14:06:24.712Z,11.00
2018-09-13T14:08:51.747Z,11.60
2018-09-13T14:11:18.797Z,11.90
2018-09-13T14:13:45.814Z,13.30
2018-09-13T14:16:12.854Z,14.00
2018-09-13T14:18:39.909Z,14.60
2018-09-13T14:21:06.940Z,15.70
2018-09-13T14:23:33.972Z,15.40
2018-09-13T14:26:01.030Z,16.40
2018-09-13T14:28:28.062Z,17.70
2018-09-13T14:33:22.239Z,19.30
2018-09-13T14:35:49.267Z,19.00
2018-09-13T14:38:16.928Z,20.80
2018-09-13T14:40:44.173Z,20.50
2018-09-13T14:43:11.925Z,20.10
2018-09-13T14:45:38.995Z,19.30
2018-09-13T14:48:06.011Z,19.90
2018-09-13T14:50:33.975Z,18.30
2018-09-13T14:53:00.996Z,18.00
2018-09-13T14:55:28.048Z,18.00
2018-09-13T14:57:55.077Z,17.10
2018-09-13T15:00:22.070Z,15.50
2018-09-13T15:05:29.111Z,14.80
2018-09-13T15:12:50.428Z,14.40
2018-09-13T15:15:17.418Z,13.10
2018-09-13T15:17:44.431Z,12.80
2018-09-13T15:20:11.446Z,13.40
2018-09-13T15:22:38.489Z,12.30
2018-09-13T15:25:05.503Z,13.30
2018-09-13T15:27:32.512Z,15.20
2018-09-13T15:34:53.761Z,23.20
2018-09-13T15:39:58.960Z,23.80
2018-09-13T15:42:26.018Z,22.90
2018-09-13T15:44:53.023Z,23.70
2018-09-13T15:47:20.058Z,23.60
2018-09-13T15:49:47.098Z,23.60
2018-09-13T15:52:14.136Z,23.60
2018-09-13T15:57:08.290Z,20.90
2018-09-13T15:59:35.315Z,19.40
2018-09-13T16:02:02.327Z,19.40
2018-09-13T16:04:29.386Z,18.50
2018-09-13T16:06:56.417Z,18.10
2018-09-13T16:11:50.598Z,19.60
2018-09-13T16:14:17.608Z,19.70
2018-09-13T16:16:44.623Z,19.60
2018-09-13T16:19:11.675Z,19.10
2018-09-13T16:21:38.700Z,19.20
2018-09-13T16:29:00.009Z,19.20
2018-09-13T16:31:27.025Z,19.50
2018-09-13T16:33:54.370Z,19.30
2018-09-13T16:36:21.334Z,19.30
2018-09-13T16:41:26.930Z,18.70
2018-09-13T16:46:21.108Z,22.20
2018-09-13T16:48:48.122Z,27.60
2018-09-13T16:51:15.974Z,34.60
2018-09-13T16:53:43.456Z,41.50
2018-09-13T16:56:11.370Z,46.10
2018-09-13T16:58:39.320Z,47.70
2018-09-13T17:01:06.352Z,47.00
2018-09-13T17:03:33.402Z,50.70
2018-09-13T17:06:00.426Z,50.30
2018-09-13T17:08:28.317Z,47.80
2018-09-13T17:10:55.357Z,45.50
2018-09-13T17:13:22.363Z,43.90
2018-09-13T17:15:49.374Z,42.00
2018-09-13T17:18:16.419Z,41.30
2018-09-13T17:20:43.445Z,39.70
2018-09-13T17:23:10.465Z,40.20
2018-09-13T17:25:38.456Z,40.00
2018-09-13T17:28:05.464Z,38.70
2018-09-13T17:30:32.471Z,36.60
2018-09-13T17:32:59.516Z,35.40
2018-09-13T17:37:54.346Z,32.60
2018-09-13T17:40:22.200Z,33.00
2018-09-13T17:42:49.203Z,33.60
2018-09-13T17:45:16.239Z,32.60
2018-09-13T17:47:43.291Z,33.30
2018-09-13T17:50:10.316Z,32.80
2018-09-13T17:52:38.102Z,32.70
2018-09-13T17:55:05.125Z,32.00
2018-09-13T17:57:32.127Z,31.50
2018-09-13T17:59:59.118Z,31.70
2018-09-13T18:02:26.158Z,32.10
2018-09-13T18:07:34.667Z,32.30
2018-09-13T18:10:01.677Z,34.20
2018-09-13T18:12:28.682Z,36.20
2018-09-13T18:14:55.735Z,38.90
2018-09-13T18:17:22.787Z,41.40
2018-09-13T18:19:49.791Z,40.40
2018-09-13T18:22:16.837Z,38.80
2018-09-13T18:24:43.857Z,37.90
2018-09-13T18:27:10.869Z,37.40
2018-09-13T18:29:37.911Z,37.20
2018-09-13T18:32:04.913Z,37.30
2018-09-13T18:34:31.919Z,37.60
2018-09-13T18:36:58.954Z,38.00
2018-09-13T18:39:25.978Z,39.20
2018-09-13T18:41:53.000Z,42.60
2018-09-13T18:44:20.878Z,48.90
2018-09-13T18:46:47.920Z,56.80
2018-09-13T18:49:14.933Z,60.30
2018-09-13T18:54:09.174Z,59.90
2018-09-13T18:56:36.108Z,61.50
2018-09-13T18:59:03.164Z,61.40
2018-09-13T19:01:30.179Z,63.20
2018-09-13T19:03:57.211Z,65.20
2018-09-13T19:11:18.496Z,68.80
2018-09-13T19:13:46.244Z,69.90
2018-09-13T19:16:13.311Z,69.40
2018-09-13T19:23:45.342Z,67.90
2018-09-13T19:26:12.417Z,69.80
2018-09-13T19:28:39.460Z,70.40
2018-09-13T19:31:06.562Z,68.80
2018-09-13T19:33:33.621Z,69.20
2018-09-13T19:36:00.644Z,70.10
2018-09-13T19:38:28.547Z,69.60
2018-09-13T19:40:56.554Z,70.90
2018-09-13T19:43:23.612Z,71.60
2018-09-13T19:45:50.752Z,73.20
2018-09-13T19:48:18.829Z,74.70
2018-09-13T19:50:45.895Z,75.70
2018-09-13T19:53:12.878Z,75.70
2018-09-13T19:55:40.001Z,75.20
2018-09-13T19:58:10.027Z,76.20
2018-09-13T20:00:37.049Z,75.60
2018-09-13T20:03:04.163Z,74.00
2018-09-13T20:05:32.173Z,73.10
2018-09-13T20:10:38.407Z,75.50
2018-09-13T20:13:05.421Z,75.80
2018-09-13T20:15:32.529Z,73.60
2018-09-13T20:17:59.579Z,73.00
2018-09-13T20:20:26.600Z,72.60
2018-09-13T20:22:53.607Z,71.40
2018-09-13T20:27:47.783Z,71.70
2018-09-13T20:30:14.851Z,71.90
2018-09-13T20:32:41.893Z,72.50
2018-09-13T20:37:47.082Z,71.20
2018-09-13T20:40:14.111Z,73.00
2018-09-13T20:42:41.220Z,73.10
2018-09-13T20:45:08.376Z,72.80
2018-09-13T20:50:02.580Z,73.00
2018-09-13T20:52:29.707Z,73.00
2018-09-13T20:57:32.272Z,74.30
2018-09-13T21:00:00.099Z,74.10
2018-09-13T21:02:27.104Z,74.10
2018-09-13T21:04:54.144Z,75.50
2018-09-13T21:07:21.149Z,73.70
2018-09-13T21:09:48.143Z,72.60
2018-09-13T21:12:15.224Z,73.10
2018-09-13T21:14:43.142Z,72.20
2018-09-13T21:17:10.253Z,72.60
2018-09-13T21:19:37.232Z,71.50
2018-09-13T21:22:04.616Z,71.20
2018-09-13T21:27:10.752Z,71.10
2018-09-13T21:29:37.782Z,70.60
2018-09-13T21:32:05.004Z,69.80
2018-09-13T21:34:31.843Z,70.40
2018-09-13T21:36:58.850Z,69.20
2018-09-13T21:39:25.878Z,71.20
2018-09-13T21:41:52.910Z,74.10
2018-09-13T21:44:20.218Z,74.20
2018-09-13T21:49:14.118Z,75.60
2018-09-13T21:51:41.137Z,77.30
2018-09-13T21:54:08.157Z,78.30
2018-09-13T21:56:35.300Z,79.50
2018-09-13T21:59:04.937Z,79.40
2018-09-13T22:03:58.334Z,79.80
2018-09-13T22:06:26.188Z,77.80
2018-09-13T22:08:54.002Z,78.00
2018-09-13T22:11:21.068Z,77.60
2018-09-13T22:13:48.041Z,78.40
2018-09-13T22:18:56.178Z,79.10
2018-09-13T22:21:26.176Z,80.20
2018-09-13T22:23:52.323Z,80.80
2018-09-13T22:26:19.419Z,80.90
2018-09-13T22:28:46.420Z,81.60
2018-09-13T22:31:13.422Z,82.00
2018-09-13T22:33:40.462Z,81.90
2018-09-13T22:36:07.461Z,83.50
2018-09-13T22:38:34.471Z,84.90
2018-09-13T22:41:01.507Z,85.70
2018-09-13T22:43:28.516Z,86.90
2018-09-13T22:45:56.340Z,86.90
2018-09-13T22:51:01.472Z,87.90
2018-09-13T22:53:28.628Z,89.60
2018-09-13T22:55:55.517Z,88.70
2018-09-13T22:58:22.511Z,89.80
2018-09-13T23:00:49.541Z,92.50
2018-09-13T23:03:16.534Z,92.90
2018-09-13T23:05:43.524Z,93.70
2018-09-13T23:08:10.555Z,93.30
2018-09-13T23:10:37.561Z,93.30
2018-09-13T23:13:04.565Z,94.20
2018-09-13T23:15:32.055Z,94.00
2018-09-13T23:17:59.774Z,93.30
2018-09-13T23:20:26.641Z,93.50
2018-09-13T23:27:48.635Z,93.30
2018-09-13T23:30:15.693Z,94.10
2018-09-13T23:32:43.530Z,95.10
2018-09-13T23:35:10.537Z,96.30
2018-09-13T23:37:37.590Z,96.00
2018-09-13T23:40:04.616Z,96.00
2018-09-13T23:42:31.605Z,96.40
2018-09-13T23:44:58.661Z,97.00
2018-09-13T23:47:26.513Z,97.20
2018-09-13T23:52:20.650Z,97.00
2018-09-13T23:54:47.652Z,97.60
2018-09-13T23:59:41.771Z,96.80
